Time;durP1;ratioP1;P1;durP2;ratioP2;P2;SDS_P1;SDS_P2;PMS_P1;PMS_P2;Temp;Humidity;BMP_temperature;BMP_pressure;BME280_temperature;BME280_humidity;BME280_pressure;Samples;Min_cycle;Max_cycle;Signal;HPM_P1;HPM_P2
2021/10/11 00:01:38;;;;;;;;;;;14.10;99.90;;;;;;8385812;28;19966;-73
2021/10/11 00:05:40;;;;;;;;;;;14.10;99.90;;;;;;8400328;28;19934;-72
2021/10/11 00:09:41;;;;;;;;;;;14.10;99.90;;;;;;8388769;28;19925;-72
2021/10/11 00:13:43;;;;;;;;;;;14.10;99.90;;;;;;8388212;28;19920;-73
2021/10/11 00:17:45;;;;;;;;;;;14.00;99.90;;;;;;8385592;28;19920;-72
2021/10/11 00:21:48;;;;;;;;;;;14.00;99.90;;;;;;8379613;28;19920;-72
2021/10/11 00:25:49;;;;;;;;;;;14.00;99.90;;;;;;8385227;28;19920;-72
2021/10/11 00:29:51;;;;;;;;;;;13.90;99.90;;;;;;8386136;28;19927;-72
2021/10/11 00:33:52;;;;;;;;;;;13.90;99.90;;;;;;8390583;28;19927;-72
2021/10/11 00:37:54;;;;;;;;;;;13.90;99.90;;;;;;8389591;28;20032;-72
2021/10/11 00:41:56;;;;;;;;;;;13.80;99.90;;;;;;8392995;28;19924;-73
2021/10/11 00:45:57;;;;;;;;;;;13.80;99.90;;;;;;8388282;28;19933;-72
2021/10/11 00:49:59;;;;;;;;;;;13.80;99.90;;;;;;8386336;28;20413;-72
2021/10/11 00:54:01;;;;;;;;;;;13.80;99.90;;;;;;8383699;28;19921;-72
2021/10/11 00:58:03;;;;;;;;;;;13.80;99.90;;;;;;8387185;28;19932;-72
2021/10/11 01:02:05;;;;;;;;;;;13.80;99.90;;;;;;8387782;28;20327;-72
2021/10/11 01:06:06;;;;;;;;;;;13.80;99.90;;;;;;8388993;28;19924;-72
2021/10/11 01:10:08;;;;;;;;;;;13.70;99.90;;;;;;8389153;28;20382;-72
2021/10/11 01:14:10;;;;;;;;;;;13.70;99.90;;;;;;8386834;28;19929;-72
2021/10/11 01:18:12;;;;;;;;;;;13.70;99.90;;;;;;8387829;28;19924;-73
2021/10/11 01:22:13;;;;;;;;;;;13.60;99.90;;;;;;8373370;28;19931;-73
2021/10/11 01:26:15;;;;;;;;;;;13.60;99.90;;;;;;8394257;28;19947;-72
2021/10/11 01:30:19;;;;;;;;;;;13.60;99.90;;;;;;8395147;28;19925;-72
2021/10/11 01:34:20;;;;;;;;;;;13.60;99.90;;;;;;8393633;28;20395;-72
2021/10/11 01:38:22;;;;;;;;;;;13.60;99.90;;;;;;8401045;28;20379;-73
2021/10/11 01:42:24;;;;;;;;;;;13.50;99.90;;;;;;8390028;28;19930;-72
2021/10/11 01:46:25;;;;;;;;;;;13.50;99.90;;;;;;8392549;28;19924;-72
2021/10/11 01:50:27;;;;;;;;;;;13.50;99.90;;;;;;8388749;28;19924;-72
2021/10/11 01:54:29;;;;;;;;;;;13.50;99.90;;;;;;8377627;28;19927;-72
2021/10/11 01:58:30;;;;;;;;;;;13.50;99.90;;;;;;8393583;28;19920;-72
2021/10/11 02:02:32;;;;;;;;;;;13.40;99.90;;;;;;8392156;28;19921;-72
2021/10/11 02:06:34;;;;;;;;;;;13.40;99.90;;;;;;8384267;28;19924;-72
2021/10/11 02:10:35;;;;;;;;;;;13.40;99.90;;;;;;8405902;28;19920;-72
2021/10/11 02:14:37;;;;;;;;;;;13.40;99.90;;;;;;8392991;28;19924;-72
2021/10/11 02:18:38;;;;;;;;;;;13.40;99.90;;;;;;8385972;28;19920;-72
2021/10/11 02:22:40;;;;;;;;;;;13.30;99.90;;;;;;8383979;28;20287;-72
2021/10/11 02:26:42;;;;;;;;;;;13.30;99.90;;;;;;8386747;28;20622;-72
2021/10/11 02:30:43;;;;;;;;;;;13.30;99.90;;;;;;8392974;28;19920;-72
2021/10/11 02:34:45;;;;;;;;;;;13.20;99.90;;;;;;8390375;28;19921;-72
2021/10/11 02:38:47;;;;;;;;;;;13.20;99.90;;;;;;8390903;28;19944;-72
2021/10/11 02:42:49;;;;;;;;;;;13.10;99.90;;;;;;8393911;28;19966;-72
2021/10/11 02:46:50;;;;;;;;;;;13.20;99.90;;;;;;8387480;28;19927;-72
2021/10/11 02:50:52;;;;;;;;;;;13.10;99.90;;;;;;8388598;28;19974;-73
2021/10/11 02:54:54;;;;;;;;;;;13.00;99.90;;;;;;8390570;28;19928;-73
2021/10/11 02:58:55;;;;;;;;;;;13.00;99.90;;;;;;8390294;28;19927;-73
2021/10/11 03:02:57;;;;;;;;;;;12.90;99.90;;;;;;8387938;28;19986;-72
2021/10/11 03:06:59;;;;;;;;;;;12.70;99.90;;;;;;8406151;28;19920;-72
2021/10/11 03:11:01;;;;;;;;;;;12.70;99.90;;;;;;8388733;28;19931;-73
2021/10/11 03:15:06;;;;;;;;;;;12.60;99.90;;;;;;8389497;28;20136;-72
2021/10/11 03:19:07;;;;;;;;;;;12.50;99.90;;;;;;8387681;28;19924;-72
2021/10/11 03:23:09;;;;;;;;;;;12.40;99.90;;;;;;8383789;28;19920;-72
2021/10/11 03:27:11;;;;;;;;;;;12.30;99.90;;;;;;8389815;28;19921;-73
2021/10/11 03:31:12;;;;;;;;;;;12.20;99.90;;;;;;8391025;28;20368;-73
2021/10/11 03:35:14;;;;;;;;;;;12.20;99.90;;;;;;8385276;28;20394;-72
2021/10/11 03:39:16;;;;;;;;;;;12.10;99.90;;;;;;8382613;28;19927;-72
2021/10/11 03:43:17;;;;;;;;;;;12.00;99.90;;;;;;8389153;28;19935;-72
2021/10/11 03:47:22;;;;;;;;;;;12.00;99.90;;;;;;8386858;28;19924;-72
2021/10/11 03:51:24;;;;;;;;;;;11.90;99.90;;;;;;8390565;28;20413;-73
2021/10/11 03:55:25;;;;;;;;;;;11.80;99.90;;;;;;8397027;28;20020;-72
2021/10/11 03:59:27;;;;;;;;;;;11.80;99.90;;;;;;8366041;28;19932;-72
2021/10/11 04:03:29;;;;;;;;;;;11.70;99.90;;;;;;8386708;28;19928;-72
2021/10/11 04:07:34;;;;;;;;;;;11.70;99.90;;;;;;8384288;28;19967;-72
2021/10/11 04:11:36;;;;;;;;;;;11.60;99.90;;;;;;8384987;28;19920;-72
2021/10/11 04:15:37;;;;;;;;;;;11.60;99.90;;;;;;8384609;28;19925;-73
2021/10/11 04:19:39;;;;;;;;;;;11.50;99.90;;;;;;8381413;28;19928;-73
2021/10/11 04:23:41;;;;;;;;;;;11.50;99.90;;;;;;8388621;28;19921;-72
2021/10/11 04:27:42;;;;;;;;;;;11.40;99.90;;;;;;8391064;28;19931;-72
2021/10/11 04:31:44;;;;;;;;;;;11.40;99.90;;;;;;8382174;28;19936;-71
2021/10/11 04:35:46;;;;;;;;;;;11.30;99.90;;;;;;8384286;28;20315;-72
2021/10/11 04:39:47;;;;;;;2.17;1.00;;;11.30;99.90;;;;;;8388871;28;20371;-72
2021/10/11 04:43:49;;;;;;;3.38;1.40;;;11.30;99.90;;;;;;8388459;28;20069;-72
2021/10/11 04:47:51;;;;;;;2.28;1.10;;;11.20;99.90;;;;;;8385612;28;20429;-72
2021/10/11 04:51:53;;;;;;;2.28;1.02;;;11.30;99.90;;;;;;8389111;28;20048;-72
2021/10/11 04:55:55;;;;;;;2.83;1.20;;;11.20;99.90;;;;;;8386351;28;20049;-72
2021/10/11 04:59:56;;;;;;;3.20;1.20;;;11.20;99.90;;;;;;8386311;28;20048;-72
2021/10/11 05:03:58;;;;;;;5.18;1.92;;;11.10;99.90;;;;;;8372263;28;20049;-73
2021/10/11 05:08:01;;;;;;;3.80;1.40;;;11.10;99.90;;;;;;8371052;28;20043;-72
2021/10/11 05:12:03;;;;;;;3.33;1.50;;;11.10;99.90;;;;;;8371950;28;20053;-73
2021/10/11 05:16:11;;;;;;;4.38;1.58;;;11.10;99.90;;;;;;8388547;28;20048;-72
2021/10/11 05:20:17;;;;;;;4.15;1.55;;;11.00;99.90;;;;;;8386152;28;20040;-72
2021/10/11 05:24:20;;;;;;;4.35;1.38;;;11.00;99.90;;;;;;8384327;28;20055;-72
2021/10/11 05:28:22;;;;;;;3.97;1.63;;;11.00;99.90;;;;;;8384105;28;20495;-72
2021/10/11 05:32:24;;;;;;;4.07;1.40;;;10.90;99.90;;;;;;8389062;28;20059;-72
2021/10/11 05:36:27;;;;;;;5.80;1.70;;;10.90;99.90;;;;;;8387415;28;20412;-72
2021/10/11 05:40:29;;;;;;;6.78;1.40;;;10.90;99.90;;;;;;8387498;28;20040;-72
2021/10/11 05:44:31;;;;;;;4.40;1.50;;;10.80;99.90;;;;;;8369999;28;20048;-73
2021/10/11 05:48:32;;;;;;;5.10;1.30;;;10.80;99.90;;;;;;8387348;28;20048;-72
2021/10/11 05:52:34;;;;;;;;;;;10.80;99.90;;;;;;8383932;28;19920;-72
2021/10/11 05:56:36;;;;;;;;;;;10.70;99.90;;;;;;8383062;28;19920;-72
2021/10/11 06:00:37;;;;;;;;;;;10.70;99.90;;;;;;8387420;28;19925;-72
2021/10/11 06:04:39;;;;;;;;;;;10.70;99.90;;;;;;8388087;28;20272;-73
2021/10/11 06:08:41;;;;;;;;;;;10.70;99.90;;;;;;8395016;28;19920;-72
2021/10/11 06:12:43;;;;;;;;;;;10.70;99.90;;;;;;8392393;28;19928;-72
2021/10/11 06:16:44;;;;;;;;;;;10.70;99.90;;;;;;8386711;28;20265;-72
2021/10/11 06:20:48;;;;;;;;;;;10.70;99.90;;;;;;8373394;28;19974;-72
2021/10/11 06:24:49;;;;;;;;;;;10.80;99.90;;;;;;8407735;28;19927;-72
2021/10/11 06:28:51;;;;;;;;;;;10.80;99.90;;;;;;8402348;28;19932;-72
2021/10/11 06:32:53;;;;;;;;;;;10.80;99.90;;;;;;8387633;28;19927;-73
2021/10/11 06:36:54;;;;;;;;;;;10.90;99.90;;;;;;8387061;28;19921;-72
2021/10/11 06:40:56;;;;;;;;;;;10.90;99.90;;;;;;8387133;28;19932;-72
2021/10/11 06:44:58;;;;;;;;;;;10.90;99.90;;;;;;8377103;28;19985;-72
2021/10/11 06:49:02;;;;;;;;;;;11.00;99.90;;;;;;8387978;28;19924;-72
2021/10/11 06:53:04;;;;;;;;;;;11.00;99.90;;;;;;8393810;28;19927;-72
2021/10/11 06:57:07;;;;;;;;;;;11.10;99.90;;;;;;8392067;28;19921;-72
2021/10/11 07:01:09;;;;;;;;;;;11.10;99.90;;;;;;8388257;28;20617;-72
2021/10/11 07:05:11;;;;;;;;;;;11.20;99.90;;;;;;8391482;28;19989;-72
2021/10/11 07:09:12;;;;;;;;;;;11.20;99.90;;;;;;8385245;28;19924;-72
2021/10/11 07:13:14;;;;;;;;;;;11.30;99.90;;;;;;8389170;28;19932;-73
2021/10/11 07:17:16;;;;;;;;;;;11.30;99.90;;;;;;8385093;28;19920;-72
2021/10/11 07:21:17;;;;;;;;;;;11.30;99.90;;;;;;8398970;28;19932;-72
2021/10/11 07:25:19;;;;;;;;;;;11.40;99.90;;;;;;8365102;28;19920;-72
2021/10/11 07:29:22;;;;;;;;;;;11.40;99.90;;;;;;8356963;28;19925;-72
2021/10/11 07:33:24;;;;;;;;;;;11.40;99.90;;;;;;8357179;28;20000;-73
2021/10/11 07:37:25;;;;;;;;;;;11.50;99.90;;;;;;8369734;28;20284;-72
2021/10/11 07:41:27;;;;;;;;;;;11.60;99.90;;;;;;8359281;28;20237;-72
2021/10/11 07:45:29;;;;;;;;;;;11.60;99.90;;;;;;8359205;28;19929;-72
2021/10/11 07:49:31;;;;;;;;;;;11.70;99.90;;;;;;8355616;28;19921;-72
2021/10/11 07:53:32;;;;;;;;;;;11.70;99.90;;;;;;8356073;28;19944;-71
2021/10/11 07:57:34;;;;;;;;;;;11.70;99.90;;;;;;8355003;28;20415;-72
2021/10/11 08:01:36;;;;;;;7.50;2.20;;;11.80;99.90;;;;;;8359293;28;20492;-72
2021/10/11 08:05:38;;;;;;;7.30;2.63;;;11.80;99.90;;;;;;8357742;28;20463;-73
2021/10/11 08:09:40;;;;;;;6.82;2.67;;;11.90;99.90;;;;;;8357079;28;20103;-71
2021/10/11 08:13:42;;;;;;;6.70;2.42;;;12.00;99.90;;;;;;8352878;28;20049;-72
2021/10/11 08:17:44;;;;;;;8.70;2.47;;;12.10;99.90;;;;;;8355540;28;20079;-72
2021/10/11 08:21:45;;;;;;;6.88;2.28;;;12.10;99.90;;;;;;8355885;28;20041;-72
2021/10/11 08:25:47;;;;;;;7.80;2.38;;;12.20;99.90;;;;;;8357760;28;20120;-72
2021/10/11 08:29:52;;;;;;;6.72;2.40;;;12.30;99.90;;;;;;8355668;28;20504;-72
2021/10/11 08:33:54;;;;;;;12.38;2.83;;;12.30;99.90;;;;;;8352606;28;20098;-72
2021/10/11 08:37:56;;;;;;;6.60;2.58;;;12.40;99.90;;;;;;8355672;28;20056;-72
2021/10/11 08:41:58;;;;;;;9.57;2.35;;;12.40;99.90;;;;;;8363718;28;20502;-73
2021/10/11 08:46:02;;;;;;;10.27;2.53;;;12.50;99.90;;;;;;8354024;28;20204;-72
2021/10/11 08:50:04;;;;;;;6.82;2.30;;;12.50;99.90;;;;;;8337344;28;20049;-72
2021/10/11 08:54:07;;;;;;;7.88;2.25;;;12.60;99.90;;;;;;8352091;28;20040;-72
2021/10/11 08:58:09;;;;;;;8.43;2.78;;;12.70;99.90;;;;;;8353172;28;20056;-72
2021/10/11 09:02:14;;;;;;;9.57;2.83;;;12.70;99.90;;;;;;8354376;28;20049;-72
2021/10/11 09:06:19;;;;;;;10.70;2.40;;;12.70;99.90;;;;;;8354416;28;20064;-72
2021/10/11 09:10:21;;;;;;;;;;;12.80;99.90;;;;;;8339240;28;19925;-71
2021/10/11 09:14:23;;;;;;;;;;;12.90;99.90;;;;;;8340262;28;19944;-72
2021/10/11 09:18:29;;;;;;;6.25;2.05;;;12.90;99.90;;;;;;8356045;28;19942;-72
2021/10/11 09:22:34;;;;;;;;;;;13.00;99.90;;;;;;8360323;28;20052;-72
2021/10/11 09:26:40;;;;;;;;;;;13.10;99.90;;;;;;8361518;28;19925;-72
2021/10/11 09:30:45;;;;;;;;;;;13.10;99.90;;;;;;8361079;28;21029;-72
2021/10/11 09:34:47;;;;;;;;;;;13.10;99.90;;;;;;8351798;28;19932;-73
2021/10/11 09:38:56;;;;;;;;;;;13.20;99.90;;;;;;8359604;28;19934;-72
2021/10/11 09:42:58;;;;;;;;;;;13.40;99.90;;;;;;8363990;28;19936;-72
2021/10/11 09:47:10;;;;;;;;;;;13.60;99.90;;;;;;8362232;28;19928;-72
2021/10/11 09:51:11;;;;;;;;;;;13.70;99.90;;;;;;8360025;28;19932;-72
2021/10/11 09:55:13;;;;;;;;;;;13.70;99.90;;;;;;8359305;28;19935;-72
2021/10/11 09:59:18;;;;;;;;;;;13.80;99.90;;;;;;8365649;28;19935;-72
2021/10/11 10:03:20;;;;;;;;;;;13.80;99.90;;;;;;8362460;28;19933;-72
2021/10/11 10:07:23;;;;;;;;;;;13.90;99.90;;;;;;8358918;28;19924;-72
2021/10/11 10:11:29;;;;;;;;;;;13.90;99.90;;;;;;8355814;28;19928;-72
2021/10/11 10:15:32;;;;;;;;;;;14.00;99.90;;;;;;8355833;28;19929;-72
2021/10/11 10:19:35;;;;;;;;;;;14.10;99.90;;;;;;8354908;28;19950;-72
2021/10/11 10:23:39;;;;;;;;;;;14.10;99.90;;;;;;8373587;28;19972;-72
2021/10/11 10:27:41;;;;;;;;;;;14.30;99.90;;;;;;8359082;28;19929;-72
2021/10/11 10:31:43;;;;;;;6.50;1.40;;;14.60;99.90;;;;;;8359999;28;19932;-73
2021/10/11 10:35:46;;;;;;;;;;;14.80;99.90;;;;;;8353393;28;19924;-72
2021/10/11 10:39:49;;;;;;;;;;;15.00;99.90;;;;;;8359050;28;19982;-72
2021/10/11 10:43:51;;;;;;;;;;;15.10;99.90;;;;;;8358823;28;20014;-72
2021/10/11 10:47:52;;;;;;;;;;;15.10;99.90;;;;;;8357080;28;19921;-72
2021/10/11 10:51:55;;;;;;;;;;;15.00;99.90;;;;;;8358622;28;20006;-72
2021/10/11 10:55:57;;;;;;;;;;;15.00;99.90;;;;;;8362478;28;20321;-72
2021/10/11 11:00:10;;;;;;;;;;;14.90;99.90;;;;;;8366097;28;20785;-72
2021/10/11 11:04:12;;;;;;;;;;;14.80;99.90;;;;;;8361681;28;19921;-72
2021/10/11 11:08:17;;;;;;;;;;;14.70;99.90;;;;;;8355953;28;19963;-72
2021/10/11 11:12:30;;;;;;;;;;;14.70;99.90;;;;;;8360023;28;20465;-72
2021/10/11 11:16:31;;;;;;;;;;;14.70;99.90;;;;;;8355964;28;19925;-72
2021/10/11 11:20:34;;;;;;;;;;;14.70;99.90;;;;;;8360081;28;20272;-72
2021/10/11 11:24:36;;;;;;;;;;;14.70;99.90;;;;;;8357399;28;19920;-72
2021/10/11 11:28:37;;;;;;;;;;;14.70;99.90;;;;;;8359987;28;20280;-72
2021/10/11 11:32:49;;;;;;;;;;;14.80;99.90;;;;;;8358920;28;19921;-72
2021/10/11 11:36:52;;;;;;;;;;;15.00;99.90;;;;;;8353016;28;19931;-72
2021/10/11 11:40:58;;;;;;;;;;;15.20;99.90;;;;;;8352445;28;20261;-72
2021/10/11 11:44:59;;;;;;;;;;;15.30;99.90;;;;;;8354288;28;19955;-72
2021/10/11 11:49:01;;;;;;;;;;;15.40;99.90;;;;;;8353153;28;19920;-72
2021/10/11 11:53:05;;;;;;;;;;;15.60;99.90;;;;;;8354653;28;19924;-72
2021/10/11 11:57:07;;;;;;;;;;;15.70;99.90;;;;;;8352808;28;19956;-72
2021/10/11 12:01:10;;;;;;;;;;;15.80;99.90;;;;;;8355373;28;19931;-72
2021/10/11 12:05:12;;;;;;;;;;;16.00;99.90;;;;;;8355989;28;19928;-72
2021/10/11 12:09:17;;;;;;;;;;;16.10;99.90;;;;;;8357047;28;20252;-71
2021/10/11 12:13:19;;;;;;;;;;;16.20;99.90;;;;;;8355528;28;19927;-72
2021/10/11 12:17:29;;;;;;;;;;;16.20;99.90;;;;;;8356846;28;19932;-72
2021/10/11 12:21:32;;;;;;;;;;;16.20;99.90;;;;;;8358260;28;19990;-72
2021/10/11 12:25:34;;;;;;;;;;;16.20;99.90;;;;;;8355439;28;19920;-72
2021/10/11 12:29:36;;;;;;;;;;;16.20;99.90;;;;;;8373719;28;19927;-73
2021/10/11 12:33:38;;;;;;;;;;;16.20;99.90;;;;;;8357804;28;19921;-72
2021/10/11 12:37:42;;;;;;;;;;;16.30;99.90;;;;;;8370802;28;20365;-72
2021/10/11 12:41:48;;;;;;;;;;;16.40;99.90;;;;;;8356322;28;19927;-73
2021/10/11 12:46:01;;;;;;;;;;;16.40;99.90;;;;;;8356531;28;19924;-72
2021/10/11 12:50:07;;;;;;;;;;;16.30;99.90;;;;;;8352669;28;19925;-72
2021/10/11 12:54:10;;;;;;;;;;;16.20;99.90;;;;;;8352374;28;20567;-72
2021/10/11 12:58:11;;;;;;;;;;;16.10;99.90;;;;;;8356565;28;20430;-72
2021/10/11 13:02:13;;;;;;;;;;;16.00;99.90;;;;;;8370822;28;19948;-72
2021/10/11 13:06:25;;;;;;;;;;;15.90;99.90;;;;;;8350518;28;19967;-72
2021/10/11 13:10:27;;;;;;;;;;;15.90;99.90;;;;;;8358024;28;19925;-72
2021/10/11 13:14:28;;;;;;;;;;;15.90;99.90;;;;;;8355599;28;21328;-72
2021/10/11 13:18:30;;;;;;;;;;;15.90;99.90;;;;;;8353911;28;19925;-72
2021/10/11 13:22:32;;;;;;;;;;;16.00;99.90;;;;;;8354040;28;19920;-72
2021/10/11 13:26:34;;;;;;;;;;;16.10;99.90;;;;;;8369638;28;19925;-72
2021/10/11 14:31:12;;;;;;;;;;;16.70;99.90;;;;;;8356501;28;19928;-72
2021/10/11 16:06:36;;;;;;;;;;;15.10;99.90;;;;;;8355616;28;19928;-73
2021/10/11 16:10:37;;;;;;;;;;;15.00;99.90;;;;;;8348352;28;19969;-72
2021/10/11 16:14:39;;;;;;;;;;;14.90;99.90;;;;;;8355052;28;19921;-72
2021/10/11 16:18:41;;;;;;;;;;;14.90;99.90;;;;;;8338190;28;20030;-72
2021/10/11 16:22:42;;;;;;;;;;;14.90;99.90;;;;;;8357152;28;19993;-72
2021/10/11 16:26:47;;;;;;;;;;;14.90;99.90;;;;;;8356603;28;19921;-72
2021/10/11 16:30:48;;;;;;;;;;;14.90;99.90;;;;;;8355545;28;19951;-72
2021/10/11 16:34:50;;;;;;;;;;;14.80;99.90;;;;;;8357364;28;20406;-73
2021/10/11 16:38:52;;;;;;;;;;;14.80;99.90;;;;;;8353465;28;19966;-72
2021/10/11 16:42:55;;;;;;;;;;;14.70;99.90;;;;;;8355278;28;19924;-72
2021/10/11 16:46:57;;;;;;;;;;;14.70;99.90;;;;;;8352964;28;20066;-72
2021/10/11 16:50:59;;;;;;;;;;;14.60;99.90;;;;;;8354660;28;20296;-72
2021/10/11 16:55:01;;;;;;;;;;;14.50;99.90;;;;;;8353583;28;19925;-73
2021/10/11 16:59:04;;;;;;;;;;;14.50;99.90;;;;;;8346366;28;19951;-72
2021/10/11 17:03:06;;;;;;;;;;;14.40;99.90;;;;;;8351355;28;20372;-73
2021/10/11 17:07:08;;;;;;;;;;;14.40;99.90;;;;;;8350518;28;19970;-72
2021/10/11 17:11:10;;;;;;;;;;;14.30;99.90;;;;;;8358162;28;19995;-72
2021/10/11 17:15:12;;;;;;;;;;;14.20;99.90;;;;;;8355391;28;20299;-72
2021/10/11 17:19:15;;;;;;;;;;;14.20;99.90;;;;;;8353516;28;19924;-72
2021/10/11 17:23:16;;;;;;;;;;;14.20;99.90;;;;;;8354409;28;19930;-72
2021/10/11 17:27:18;;;;;;;;;;;14.10;99.90;;;;;;8353258;28;20033;-72
2021/10/11 17:31:20;;;;;;;;;;;14.10;99.90;;;;;;8354780;28;20334;-72
2021/10/11 17:35:24;;;;;;;;;;;14.10;99.90;;;;;;8353397;28;19928;-72
2021/10/11 17:39:26;;;;;;;;;;;14.00;99.90;;;;;;8357297;28;20016;-72
2021/10/11 17:43:31;;;;;;;;;;;14.00;99.90;;;;;;8352826;28;19936;-72
2021/10/11 17:47:36;;;;;;;;;;;13.90;99.90;;;;;;8354150;28;19920;-72
2021/10/11 17:51:38;;;;;;;;;;;13.90;99.90;;;;;;8355014;28;20300;-72
2021/10/11 17:55:40;;;;;;;;;;;13.90;99.90;;;;;;8368338;28;19920;-72
2021/10/11 17:59:41;;;;;;;;;;;13.80;99.90;;;;;;8356079;28;20335;-72
2021/10/11 18:03:43;;;;;;;;;;;13.80;99.90;;;;;;8359110;28;20394;-72
2021/10/11 18:07:45;;;;;;;;;;;13.80;99.90;;;;;;8359581;28;20256;-72
2021/10/11 18:11:47;;;;;;;;;;;13.80;99.90;;;;;;8382309;28;19928;-73
2021/10/11 18:15:49;;;;;;;;;;;13.80;99.90;;;;;;8363902;28;19920;-73
2021/10/11 18:19:50;;;;;;;;;;;13.90;99.90;;;;;;8359949;28;20003;-72
2021/10/11 18:23:52;;;;;;;;;;;13.80;99.90;;;;;;8361579;28;20335;-72
2021/10/11 18:27:54;;;;;;;;;;;13.80;99.90;;;;;;8357971;28;19921;-72
2021/10/11 18:31:57;;;;;;;;;;;13.80;99.90;;;;;;8358027;28;20332;-72
2021/10/11 18:35:58;;;;;;;;;;;13.80;99.90;;;;;;8357657;28;19921;-72
2021/10/11 18:40:00;;;;;;;;;;;13.70;99.90;;;;;;8361437;28;19970;-72
2021/10/11 18:44:02;;;;;;;;;;;13.70;99.90;;;;;;8361266;28;19925;-71
2021/10/11 18:48:03;;;;;;;;;;;13.70;99.90;;;;;;8360139;28;19941;-72
2021/10/11 18:52:05;;;;;;;;;;;13.60;99.90;;;;;;8358159;28;19974;-72
2021/10/11 18:56:07;;;;;;;;;;;13.60;99.90;;;;;;8356351;28;20019;-72
2021/10/11 19:00:16;;;;;;;;;;;13.60;99.90;;;;;;8358155;28;19929;-72
2021/10/11 19:04:17;;;;;;;;;;;13.60;99.90;;;;;;8358704;28;19920;-72
2021/10/11 19:08:19;;;;;;;;;;;13.60;99.90;;;;;;8355803;28;20610;-71
2021/10/11 19:12:20;;;;;;;;;;;13.60;99.90;;;;;;8354236;28;19958;-71
2021/10/11 19:16:22;;;;;;;;;;;13.60;99.90;;;;;;8356322;28;19973;-71
2021/10/11 19:20:24;;;;;;;;;;;13.60;99.90;;;;;;8355376;28;19920;-72
2021/10/11 19:24:25;;;;;;;;;;;13.60;99.90;;;;;;8356964;28;19920;-72
2021/10/11 19:28:27;;;;;;;;;;;13.60;99.90;;;;;;8356377;28;20288;-72
2021/10/11 19:32:29;;;;;;;;;;;13.50;99.90;;;;;;8358092;28;19924;-73
2021/10/11 19:36:30;;;;;;;;;;;13.50;99.90;;;;;;8363140;28;19920;-73
2021/10/11 19:40:32;;;;;;;;;;;13.50;99.90;;;;;;8358901;28;19924;-72
2021/10/11 19:44:34;;;;;;;;;;;13.60;99.90;;;;;;8354096;28;19921;-72
2021/10/11 19:48:36;;;;;;;;;;;13.60;99.90;;;;;;8355911;28;20364;-71
2021/10/11 19:52:38;;;;;;;;;;;13.60;99.90;;;;;;8348369;28;19924;-72
2021/10/11 19:56:40;;;;;;;;;;;13.60;99.90;;;;;;8371289;28;20335;-72
2021/10/11 20:00:42;;;;;;;;;;;13.50;99.90;;;;;;8358189;28;20478;-72
2021/10/11 20:04:44;;;;;;;;;;;13.50;99.90;;;;;;8354026;28;19929;-72
2021/10/11 20:08:45;;;;;;;;;;;13.50;99.90;;;;;;8361405;28;19925;-72
2021/10/11 20:12:47;;;;;;;;;;;13.50;99.90;;;;;;8377276;28;19920;-73
2021/10/11 20:16:50;;;;;;;;;;;13.40;99.90;;;;;;8362042;28;19924;-72
2021/10/11 20:20:51;;;;;;;;;;;13.40;99.90;;;;;;8377839;28;19928;-72
2021/10/11 20:24:53;;;;;;;;;;;13.30;99.90;;;;;;8379539;28;19930;-72
2021/10/11 20:28:55;;;;;;;;;;;13.30;99.90;;;;;;8362944;28;20271;-72
2021/10/11 20:32:59;;;;;;;;;;;13.30;99.90;;;;;;8359365;28;19928;-72
2021/10/11 20:37:00;;;;;;;;;;;13.30;99.90;;;;;;8360666;28;19924;-71
2021/10/11 20:41:02;;;;;;;;;;;13.20;99.90;;;;;;8365401;28;22797;-72
2021/10/11 20:45:04;;;;;;;;;;;13.20;99.90;;;;;;8363849;28;19958;-72
2021/10/11 20:49:06;;;;;;;;;;;13.20;99.90;;;;;;8367365;28;20391;-72
2021/10/11 20:53:07;;;;;;;;;;;13.10;99.90;;;;;;8357398;28;19967;-72
2021/10/11 20:57:10;;;;;;;;;;;13.10;99.90;;;;;;8360921;28;19921;-72
2021/10/11 21:01:13;;;;;;;8.07;2.50;;;13.10;99.90;;;;;;8372111;28;19943;-72
2021/10/11 21:05:15;;;;;;;6.07;2.60;;;13.00;99.90;;;;;;8380293;28;20531;-72
2021/10/11 21:09:16;;;;;;;5.03;2.42;;;13.00;99.90;;;;;;8370964;28;20056;-71
2021/10/11 21:13:18;;;;;;;7.53;2.60;;;13.00;99.90;;;;;;8383335;28;20113;-71
2021/10/11 21:17:20;;;;;;;7.03;2.85;;;12.80;99.90;;;;;;8387186;28;20067;-72
2021/10/11 21:21:22;;;;;;;9.15;3.78;;;12.70;99.90;;;;;;8375787;28;20075;-72
2021/10/11 21:25:24;;;;;;;8.15;3.95;;;12.70;99.90;;;;;;8384733;28;20403;-71
2021/10/11 21:29:25;;;;;;;8.18;4.05;;;12.70;99.90;;;;;;8385872;28;20048;-73
2021/10/11 21:33:27;;;;;;;7.75;2.90;;;12.70;99.90;;;;;;8370089;28;20048;-72
2021/10/11 21:37:29;;;;;;;9.98;2.85;;;12.60;99.90;;;;;;8375404;28;20162;-72
2021/10/11 21:41:32;;;;;;;9.23;2.75;;;12.50;99.90;;;;;;8387489;28;20059;-72
2021/10/11 21:45:34;;;;;;;7.20;2.15;;;12.50;99.90;;;;;;8389586;28;20114;-72
2021/10/11 21:49:35;;;;;;;7.03;1.98;;;12.50;99.90;;;;;;8391369;28;20040;-72
2021/10/11 21:53:37;;;;;;;9.05;2.15;;;12.50;99.90;;;;;;8394390;28;20392;-72
2021/10/11 21:57:39;;;;;;;4.50;1.50;;;12.50;99.90;;;;;;8390480;28;20400;-72
2021/10/11 22:01:40;;;;;;;6.82;1.63;;;12.60;99.90;;;;;;8391831;28;20045;-72
2021/10/11 22:05:43;;;;;;;6.82;1.70;;;12.70;99.90;;;;;;8392826;28;20056;-72
2021/10/11 22:09:45;;;;;;;5.55;1.65;;;12.80;99.90;;;;;;8375342;28;20053;-71
2021/10/11 22:13:47;;;;;;;5.97;1.40;;;12.80;99.90;;;;;;8375518;28;20048;-72
2021/10/11 22:17:48;;;;;;;5.55;1.48;;;12.90;99.90;;;;;;8388261;28;20044;-72
2021/10/11 22:21:51;;;;;;;5.75;1.40;;;12.90;99.90;;;;;;8385414;28;20122;-72
2021/10/11 22:25:52;;;;;;;5.88;1.38;;;12.90;99.90;;;;;;8391228;28;20052;-73
2021/10/11 22:29:54;;;;;;;8.23;1.58;;;12.90;99.90;;;;;;8390977;28;20063;-71
2021/10/11 22:33:57;;;;;;;7.45;1.40;;;12.90;99.90;;;;;;8387895;28;20091;-72
2021/10/11 22:37:59;;;;;;;5.80;1.60;;;12.90;99.90;;;;;;8389424;28;20420;-72
2021/10/11 22:42:02;;;;;;;4.90;1.42;;;12.90;99.90;;;;;;8387846;28;20067;-72
2021/10/11 22:46:04;;;;;;;5.38;1.55;;;12.80;99.90;;;;;;8369672;28;20055;-72
2021/10/11 22:50:06;;;;;;;6.82;1.48;;;12.80;99.90;;;;;;8391379;28;20088;-71
2021/10/11 22:54:08;;;;;;;6.03;1.77;;;12.70;99.90;;;;;;8389706;28;20064;-72
2021/10/11 22:58:10;;;;;;;7.10;2.40;;;12.70;99.90;;;;;;8376526;28;20055;-72
2021/10/11 23:02:12;;;;;;;6.57;2.10;;;12.50;99.90;;;;;;8390826;28;20049;-71
2021/10/11 23:06:14;;;;;;;5.32;1.90;;;12.40;99.90;;;;;;8388666;28;20052;-72
2021/10/11 23:10:17;;;;;;;4.10;1.77;;;12.40;99.90;;;;;;8393115;28;20063;-71
2021/10/11 23:14:19;;;;;;;5.28;1.50;;;12.40;99.90;;;;;;8388753;28;20055;-71
2021/10/11 23:18:21;;;;;;;5.05;1.30;;;12.50;99.90;;;;;;8383549;28;20052;-72
2021/10/11 23:22:23;;;;;;;5.07;1.40;;;12.60;99.90;;;;;;8363626;28;20371;-72
2021/10/11 23:26:24;;;;;;;8.75;1.40;;;12.60;99.90;;;;;;8370346;28;20048;-72
2021/10/11 23:30:26;;;;;;;4.00;1.38;;;12.60;99.90;;;;;;8370232;28;20071;-72
2021/10/11 23:34:28;;;;;;;4.38;1.40;;;12.60;99.90;;;;;;8387182;28;20059;-72
2021/10/11 23:38:30;;;;;;;6.47;1.90;;;12.60;99.90;;;;;;8388447;28;20041;-72
2021/10/11 23:42:32;;;;;;;6.15;1.35;;;12.50;99.90;;;;;;8388251;28;20434;-71
2021/10/11 23:46:34;;;;;;;4.60;1.38;;;12.40;99.90;;;;;;8387147;28;20123;-72
2021/10/11 23:50:36;;;;;;;5.05;1.45;;;12.40;99.90;;;;;;8371695;28;20040;-72
2021/10/11 23:54:38;;;;;;;4.88;1.60;;;12.50;99.90;;;;;;8390474;28;20044;-72
2021/10/11 23:58:39;;;;;;;3.90;1.50;;;12.50;99.90;;;;;;8388392;28;20060;-72
